createdAt,value
2022-08-17T00:01:18.222Z,22
2022-08-17T00:03:21.087Z,21.9
2022-08-17T00:05:24.039Z,21.9
2022-08-17T00:07:27.004Z,21.8
2022-08-17T00:09:29.953Z,21.9
2022-08-17T00:15:41.930Z,21.8
2022-08-17T00:17:44.869Z,21.7
2022-08-17T00:19:47.841Z,21.7
2022-08-17T00:22:53.820Z,21.8
2022-08-17T00:24:56.765Z,21.7
2022-08-17T00:26:59.734Z,21.7
2022-08-17T00:29:05.819Z,21.6
2022-08-17T00:31:08.787Z,21.6
2022-08-17T00:33:16.614Z,21.7
2022-08-17T00:35:14.716Z,21.8
2022-08-17T00:37:17.723Z,21.6
2022-08-17T00:41:23.575Z,21.6
2022-08-17T00:49:38.562Z,21.4
2022-08-17T00:51:43.098Z,21.5
2022-08-17T00:53:46.024Z,21.4
2022-08-17T00:55:49.004Z,21.4
2022-08-17T00:57:55.537Z,21.3
2022-08-17T01:00:02.032Z,21.3
2022-08-17T01:02:01.060Z,21.4
2022-08-17T01:04:04.011Z,21.3
2022-08-17T01:06:06.987Z,21.3
2022-08-17T01:08:09.997Z,21.3
2022-08-17T01:10:57.598Z,21.2
2022-08-17T01:12:19.077Z,21
2022-08-17T01:14:22.049Z,21.1
2022-08-17T01:16:25.016Z,21.1
2022-08-17T01:17:28.062Z,21
2022-08-17T01:19:31.003Z,21
2022-08-17T01:21:33.979Z,20.9
2022-08-17T01:23:36.956Z,20.9
2022-08-17T01:27:46.025Z,20.9
2022-08-17T01:29:48.999Z,21
2022-08-17T01:31:51.974Z,20.8
2022-08-17T01:33:54.920Z,20.9
2022-08-17T01:35:57.925Z,20.9
2022-08-17T01:40:07.146Z,20.9
2022-08-17T01:42:10.020Z,20.9
2022-08-17T01:44:12.987Z,20.9
2022-08-17T01:46:15.960Z,20.9
2022-08-17T01:48:18.945Z,20.9
2022-08-17T01:54:31.052Z,20.7
2022-08-17T01:58:36.984Z,20.8
2022-08-17T02:01:00.324Z,20.8
2022-08-17T02:02:43.044Z,20.7
2022-08-17T02:04:45.949Z,20.9
2022-08-17T02:06:53.400Z,20.8
2022-08-17T02:09:02.581Z,20.7
2022-08-17T02:10:58.035Z,20.6
2022-08-17T02:13:01.009Z,20.7
2022-08-17T02:15:24.603Z,20.7
2022-08-17T02:17:27.634Z,20.8
2022-08-17T02:19:30.591Z,20.7
2022-08-17T02:21:36.721Z,20.6
2022-08-17T02:23:39.678Z,20.7
2022-08-17T02:25:42.653Z,20.7
2022-08-17T02:27:45.613Z,20.5
2022-08-17T02:29:48.602Z,20.6
2022-08-17T02:31:51.589Z,20.5
2022-08-17T02:34:00.269Z,20.7
2022-08-17T02:36:00.688Z,20.4
2022-08-17T02:38:03.663Z,20.5
2022-08-17T02:40:06.775Z,20.4
2022-08-17T02:42:09.640Z,20.3
2022-08-17T02:44:12.619Z,20.3
2022-08-17T02:46:15.611Z,20.5
2022-08-17T02:48:29.715Z,20.6
2022-08-17T02:50:24.723Z,20.4
2022-08-17T02:52:42.676Z,20.5
2022-08-17T02:54:39.825Z,20.4
2022-08-17T03:02:42.710Z,20.6
2022-08-17T03:09:57.756Z,20.5
2022-08-17T03:12:00.761Z,20.5
2022-08-17T03:14:03.757Z,20.5
2022-08-17T03:16:06.723Z,20.5
2022-08-17T03:18:19.083Z,20.5
2022-08-17T03:20:15.828Z,20.5
2022-08-17T03:22:35.951Z,20.6
2022-08-17T03:24:21.803Z,20.6
2022-08-17T03:26:24.775Z,20.4
2022-08-17T03:30:30.756Z,20.5
2022-08-17T03:32:36.875Z,20.4
2022-08-17T03:34:39.854Z,20.4
2022-08-17T03:36:42.864Z,20.5
2022-08-17T03:38:45.834Z,20.5
2022-08-17T03:40:57.381Z,20.3
2022-08-17T03:42:51.856Z,20.4
2022-08-17T03:44:54.793Z,20.6
2022-08-17T03:47:00.928Z,20.5
2022-08-17T03:49:04.308Z,20.5
2022-08-17T03:51:09.331Z,20.5
2022-08-17T03:53:09.885Z,20.6
2022-08-17T04:01:25.060Z,20.5
2022-08-17T04:03:27.985Z,20.5
2022-08-17T04:05:30.975Z,20.4
2022-08-17T04:06:34.046Z,20.4
2022-08-17T04:08:36.996Z,20.5
2022-08-17T04:12:43.032Z,20.4
2022-08-17T04:14:51.660Z,20.3
2022-08-17T04:16:52.078Z,20.4
2022-08-17T04:18:55.051Z,20.3
2022-08-17T04:23:00.999Z,20.4
2022-08-17T04:25:04.041Z,20.5
2022-08-17T04:27:06.990Z,20.3
2022-08-17T04:29:13.079Z,20.4
2022-08-17T04:31:16.053Z,20.3
2022-08-17T04:33:19.038Z,20.3
2022-08-17T04:35:22.020Z,20.3
2022-08-17T04:37:25.004Z,20.4
2022-08-17T04:39:28.009Z,20.4
2022-08-17T04:41:30.992Z,20.4
2022-08-17T04:43:37.095Z,20.4
2022-08-17T04:47:43.053Z,20.2
2022-08-17T04:49:46.049Z,20.2
2022-08-17T04:51:54.529Z,20.2
2022-08-17T04:53:54.203Z,20.1
2022-08-17T04:55:55.004Z,20.3
2022-08-17T04:58:01.118Z,20.2
2022-08-17T05:00:04.132Z,20.3
2022-08-17T05:02:07.138Z,20.3
2022-08-17T05:03:10.166Z,20.1
2022-08-17T05:05:13.175Z,20.3
2022-08-17T05:07:21.084Z,20.3
2022-08-17T05:09:19.160Z,20.3
2022-08-17T05:11:25.285Z,20.3
2022-08-17T05:17:34.211Z,20.3
2022-08-17T05:19:37.391Z,20.3
2022-08-17T05:23:43.490Z,20.4
2022-08-17T05:27:52.268Z,20.4
2022-08-17T05:29:55.267Z,20.4
2022-08-17T05:31:58.250Z,20.3
2022-08-17T05:36:04.208Z,20.2
2022-08-17T05:38:07.195Z,20
2022-08-17T05:40:13.286Z,20.2
2022-08-17T05:42:16.277Z,20
2022-08-17T05:44:19.261Z,20.1
2022-08-17T05:46:22.288Z,19.9
2022-08-17T05:48:39.152Z,19.9
2022-08-17T05:50:29.820Z,19.9
2022-08-17T05:52:31.240Z,19.9
2022-08-17T05:54:37.386Z,19.7
2022-08-17T05:56:40.398Z,19.6
2022-08-17T05:58:43.385Z,19.7
2022-08-17T06:01:12.889Z,19.8
2022-08-17T06:03:15.819Z,19.6
2022-08-17T06:05:18.815Z,19.7
2022-08-17T06:07:24.953Z,19.7
2022-08-17T06:09:33.467Z,19.7
2022-08-17T06:13:33.961Z,19.6
2022-08-17T06:30:01.161Z,20.4
2022-08-17T06:32:04.140Z,20.7
2022-08-17T06:36:15.802Z,20.4
2022-08-17T06:40:19.240Z,20.1
2022-08-17T06:42:55.042Z,20
2022-08-17T06:44:43.669Z,20
2022-08-17T06:46:29.784Z,20.2
2022-08-17T06:48:32.749Z,20.3
2022-08-17T06:52:46.643Z,20.5
2022-08-17T06:54:44.865Z,20.5
2022-08-17T06:55:47.925Z,20.5
2022-08-17T06:57:50.882Z,20.7
2022-08-17T06:59:56.134Z,20.8
2022-08-17T07:04:06.364Z,21.4
2022-08-17T07:10:11.952Z,21.5
2022-08-17T07:12:14.950Z,21.5
2022-08-17T07:14:17.903Z,21.3
2022-08-17T07:16:20.863Z,21.6
2022-08-17T07:18:26.971Z,21.7
2022-08-17T07:20:29.971Z,21.8
2022-08-17T07:22:57.874Z,21.8
2022-08-17T07:24:35.877Z,21.8
2022-08-17T07:28:41.786Z,22.2
2022-08-17T07:30:47.426Z,22.6
2022-08-17T07:32:50.841Z,22.1
2022-08-17T07:34:53.778Z,22.4
2022-08-17T07:36:56.727Z,22.8
2022-08-17T07:38:59.687Z,24
2022-08-17T07:41:03.218Z,25.4
2022-08-17T07:43:05.595Z,26
2022-08-17T07:45:08.512Z,26
2022-08-17T07:47:14.610Z,25.6
2022-08-17T07:49:17.518Z,24.8
2022-08-17T07:52:47.493Z,23.6
2022-08-17T07:54:26.391Z,23.5
2022-08-17T07:56:34.910Z,23.2
2022-08-17T07:58:32.192Z,23
2022-08-17T08:00:38.269Z,23.5
2022-08-17T08:02:41.394Z,23.4
2022-08-17T08:05:00.973Z,23.6
2022-08-17T08:06:46.978Z,23.6
2022-08-17T08:08:49.881Z,23.9
2022-08-17T08:12:55.691Z,23.3
2022-08-17T08:17:04.649Z,23.2
2022-08-17T08:19:07.542Z,23.2
2022-08-17T08:21:10.459Z,23.2
2022-08-17T08:23:13.359Z,23.2
2022-08-17T08:25:16.265Z,23
2022-08-17T08:27:19.153Z,23.2
2022-08-17T08:29:25.215Z,23.4
2022-08-17T08:31:28.084Z,23.4
2022-08-17T08:33:30.986Z,23.5
2022-08-17T08:35:33.908Z,23.5
2022-08-17T08:37:39.208Z,23.6
2022-08-17T08:39:39.770Z,23.5
2022-08-17T08:41:42.634Z,23.3
2022-08-17T08:43:52.681Z,23.3
2022-08-17T08:45:51.578Z,23.3
2022-08-17T08:47:54.534Z,23.5
2022-08-17T08:48:58.592Z,23.5
2022-08-17T08:51:00.411Z,23.7
2022-08-17T08:53:03.303Z,23.8
2022-08-17T08:57:24.483Z,24.5
2022-08-17T08:59:15.145Z,24.7
2022-08-17T09:01:18.114Z,24.8
2022-08-17T09:03:20.961Z,24.5
2022-08-17T09:05:23.848Z,24.6
2022-08-17T09:07:26.744Z,24.7
2022-08-17T09:09:29.642Z,24.8
2022-08-17T09:11:35.681Z,24.7
2022-08-17T09:13:38.585Z,24.5
2022-08-17T09:17:44.376Z,24.5
2022-08-17T09:19:47.255Z,24.9
2022-08-17T09:21:50.165Z,25.6
2022-08-17T09:23:53.034Z,25
2022-08-17T09:44:28.103Z,26.9
2022-08-17T09:46:51.633Z,26.5
2022-08-17T09:48:54.473Z,26.4
2022-08-17T09:51:04.492Z,26.2
2022-08-17T09:53:03.306Z,26.5
2022-08-17T09:55:06.130Z,26.6
2022-08-17T09:57:28.485Z,26.6
2022-08-17T09:59:11.787Z,26.4
2022-08-17T10:01:14.658Z,26.1
2022-08-17T10:03:17.421Z,25.6
2022-08-17T10:09:29.030Z,25.7
2022-08-17T10:11:33.417Z,25.6
2022-08-17T10:17:40.286Z,25.5
2022-08-17T10:21:49.099Z,25.4
2022-08-17T10:27:57.586Z,25.4
2022-08-17T10:30:00.413Z,25.3
2022-08-17T10:32:03.236Z,25.2
2022-08-17T10:34:06.064Z,24.9
2022-08-17T10:40:17.788Z,25.2
2022-08-17T10:41:20.723Z,25
2022-08-17T10:43:23.557Z,24.9
2022-08-17T10:45:26.419Z,25.1
2022-08-17T10:47:29.236Z,25.3
2022-08-17T10:49:35.222Z,25.3
2022-08-17T10:51:38.103Z,25.2
2022-08-17T10:53:40.888Z,25.2
2022-08-17T10:55:43.732Z,25.6
2022-08-17T10:57:46.674Z,25.5
2022-08-17T10:59:49.409Z,25.4
2022-08-17T11:01:52.269Z,25.2
2022-08-17T11:03:58.253Z,25.2
2022-08-17T11:06:01.061Z,25.2
2022-08-17T11:08:03.896Z,25
2022-08-17T11:10:06.755Z,25.3
2022-08-17T11:12:09.578Z,25.5
2022-08-17T11:14:12.449Z,25.2
2022-08-17T11:20:24.099Z,24.8
2022-08-17T11:22:31.251Z,25
2022-08-17T11:24:29.786Z,25.3
2022-08-17T11:26:32.643Z,25.2
2022-08-17T11:28:35.490Z,25.5
2022-08-17T11:32:48.630Z,25.1
2022-08-17T11:34:47.159Z,25.2
2022-08-17T11:36:50.031Z,24.9
2022-08-17T11:37:53.023Z,24.8
2022-08-17T11:39:55.911Z,24.8
2022-08-17T11:41:58.710Z,24.6
2022-08-17T11:44:01.962Z,24.6
2022-08-17T11:46:07.581Z,24.9
2022-08-17T11:48:27.037Z,24.9
2022-08-17T11:50:13.329Z,24.9
2022-08-17T11:52:16.161Z,24.8
2022-08-17T11:54:32.877Z,24.8
2022-08-17T11:56:26.665Z,24.9
2022-08-17T11:58:24.757Z,24.9
2022-08-17T12:00:30.771Z,24.7
2022-08-17T12:02:33.627Z,24.5
2022-08-17T12:04:36.568Z,24.3
2022-08-17T12:06:39.365Z,24
2022-08-17T12:08:42.247Z,23.9
2022-08-17T12:12:47.961Z,23.8
2022-08-17T12:15:09.972Z,23.9
2022-08-17T12:18:59.763Z,23.5
2022-08-17T12:21:02.663Z,23.5
2022-08-17T12:23:05.531Z,23.7
2022-08-17T12:25:08.430Z,23.6
2022-08-17T12:27:11.319Z,23.5
2022-08-17T12:29:18.388Z,23.4
2022-08-17T12:31:20.265Z,23.2
2022-08-17T12:34:26.177Z,23.4
2022-08-17T12:36:29.125Z,23.5
2022-08-17T12:38:33.463Z,23.5
2022-08-17T12:40:36.478Z,23.5
2022-08-17T12:42:42.558Z,23.6
2022-08-17T12:44:50.027Z,23.7
2022-08-17T12:46:48.424Z,23.7
2022-08-17T12:48:59.224Z,23.6
2022-08-17T12:50:54.262Z,23.6
2022-08-17T12:53:01.657Z,23.6
2022-08-17T12:55:00.150Z,23.6
2022-08-17T12:57:06.130Z,23.5
2022-08-17T12:59:09.034Z,23.5
2022-08-17T13:01:11.970Z,23.2
2022-08-17T13:07:20.724Z,23
2022-08-17T13:09:23.660Z,22.6
2022-08-17T13:11:29.695Z,22.4
2022-08-17T13:17:38.504Z,22.3
2022-08-17T13:19:41.639Z,22.3
2022-08-17T13:25:53.942Z,21.9
2022-08-17T13:27:56.883Z,21.9
2022-08-17T13:29:59.830Z,21.9
2022-08-17T13:42:53.165Z,21.9
2022-08-17T13:46:47.034Z,22
2022-08-17T13:48:49.987Z,21.9
2022-08-17T13:50:52.941Z,21.8
2022-08-17T13:52:59.019Z,21.6
2022-08-17T13:59:07.897Z,21.9
2022-08-17T14:01:12.840Z,21.9
2022-08-17T14:11:28.757Z,22
2022-08-17T14:17:39.093Z,22.1
2022-08-17T14:19:40.567Z,22.2
2022-08-17T14:21:46.680Z,22.3
2022-08-17T14:25:52.600Z,22.3
2022-08-17T14:26:55.593Z,22.4
2022-08-17T14:28:58.569Z,22.4
2022-08-17T14:31:01.503Z,22.6
2022-08-17T14:33:04.468Z,22.7
2022-08-17T14:35:10.537Z,22.7
2022-08-17T14:37:13.476Z,22.7
2022-08-17T14:41:22.156Z,22.8
2022-08-17T14:43:22.321Z,22.6
2022-08-17T14:45:29.718Z,22.6
2022-08-17T14:47:28.199Z,22.6
2022-08-17T14:49:34.280Z,22.6
2022-08-17T14:51:37.223Z,22.7
2022-08-17T14:53:40.153Z,22.6
2022-08-17T14:57:46.124Z,22.2
2022-08-17T14:59:49.212Z,22.2
2022-08-17T15:03:57.989Z,22
2022-08-17T15:08:03.872Z,22.1
2022-08-17T15:10:06.820Z,22.2
2022-08-17T15:12:09.747Z,22.1
2022-08-17T15:14:12.709Z,22.3
2022-08-17T15:16:15.638Z,22.6
2022-08-17T15:18:21.726Z,22.6
2022-08-17T15:20:24.659Z,22.8
2022-08-17T15:22:27.604Z,22.8
2022-08-17T15:33:48.390Z,25.9
2022-08-17T15:35:51.327Z,25.4
2022-08-17T15:37:54.199Z,24.6
2022-08-17T15:39:57.221Z,24.3
2022-08-17T15:41:59.987Z,23.8
2022-08-17T15:44:02.888Z,23.7
2022-08-17T15:46:08.910Z,23.3
2022-08-17T15:48:11.798Z,23.3
2022-08-17T15:50:14.679Z,23.2
2022-08-17T15:52:17.555Z,23
2022-08-17T15:54:22.871Z,23
2022-08-17T15:56:23.342Z,23.1
2022-08-17T15:58:29.889Z,23.3
2022-08-17T16:00:34.597Z,22.8
2022-08-17T16:03:45.711Z,22.8
2022-08-17T16:04:40.247Z,22.7
2022-08-17T16:06:40.939Z,22.8
2022-08-17T16:12:50.048Z,22.3
2022-08-17T16:19:01.471Z,22.2
2022-08-17T16:22:07.417Z,22.5
2022-08-17T16:24:13.647Z,22.5
2022-08-17T16:26:13.224Z,22.4
2022-08-17T16:28:19.275Z,22.3
2022-08-17T16:30:22.186Z,22.2
2022-08-17T16:32:31.722Z,22.4
2022-08-17T16:34:28.023Z,22.3
2022-08-17T16:36:30.945Z,22.3
2022-08-17T16:38:33.838Z,22.2
2022-08-17T16:40:36.780Z,22.1
2022-08-17T16:42:42.865Z,22.1
2022-08-17T16:44:45.758Z,21.9
2022-08-17T16:46:48.669Z,21.9
2022-08-17T16:48:51.587Z,21.9
2022-08-17T16:52:57.452Z,22.1
2022-08-17T16:55:00.409Z,21.9
2022-08-17T16:57:06.451Z,22
2022-08-17T17:05:18.178Z,22.1
2022-08-17T17:07:21.119Z,22.1
2022-08-17T17:11:30.148Z,21.9
2022-08-17T17:15:35.981Z,22.2
2022-08-17T17:17:59.827Z,22.1
2022-08-17T17:24:11.523Z,22
2022-08-17T17:28:17.380Z,21.9
2022-08-17T17:30:20.323Z,21.8
2022-08-17T17:36:29.116Z,22
2022-08-17T17:38:35.182Z,21.9
2022-08-17T17:40:38.110Z,21.9
2022-08-17T17:42:41.044Z,22.1
2022-08-17T17:46:46.915Z,22
2022-08-17T17:48:49.840Z,22
2022-08-17T17:50:52.987Z,21.9
2022-08-17T17:52:59.061Z,21.8
2022-08-17T17:55:02.001Z,21.7
2022-08-17T17:57:04.939Z,21.6
2022-08-17T17:59:12.887Z,21.5
2022-08-17T18:01:10.808Z,21.7
2022-08-17T18:03:13.751Z,21.6
2022-08-17T18:05:16.670Z,21.7
2022-08-17T18:07:22.761Z,21.4
2022-08-17T18:09:25.692Z,21.5
2022-08-17T18:11:34.857Z,21.2
2022-08-17T18:12:31.651Z,21.3
2022-08-17T18:14:34.631Z,21.3
2022-08-17T18:16:37.552Z,21.1
2022-08-17T18:18:40.537Z,21.2
2022-08-17T18:20:53.884Z,21.1
2022-08-17T18:22:49.542Z,21
2022-08-17T18:24:52.461Z,20.9
2022-08-17T18:26:55.539Z,21
2022-08-17T18:28:58.401Z,21
2022-08-17T18:31:01.352Z,21
2022-08-17T18:33:04.324Z,21
2022-08-17T18:39:17.927Z,20.9
2022-08-17T18:41:20.866Z,20.9
2022-08-17T18:47:29.728Z,20.6
2022-08-17T18:49:35.810Z,20.7
2022-08-17T18:51:41.835Z,20.7
2022-08-17T18:53:41.730Z,20.8
2022-08-17T18:57:47.673Z,20.6
2022-08-17T18:59:50.623Z,20.7
2022-08-17T19:01:56.192Z,20.6
2022-08-17T19:03:59.649Z,20.7
2022-08-17T19:06:02.601Z,20.6
2022-08-17T19:09:08.682Z,20.6
2022-08-17T19:11:11.580Z,20.7
2022-08-17T19:15:17.493Z,20.8
2022-08-17T19:17:23.654Z,20.8
2022-08-17T19:19:26.589Z,20.9
2022-08-17T19:21:29.543Z,20.9
2022-08-17T19:23:32.575Z,20.7
2022-08-17T19:25:35.460Z,20.6
2022-08-17T19:27:41.996Z,20.6
2022-08-17T19:29:41.431Z,20.6
2022-08-17T19:31:47.494Z,20.6
2022-08-17T19:33:50.387Z,20.5
2022-08-17T19:35:53.343Z,20.5
2022-08-17T19:37:56.279Z,20.4
2022-08-17T19:39:59.365Z,20.5
2022-08-17T19:42:02.194Z,20.5
2022-08-17T19:44:05.119Z,20.5
2022-08-17T19:46:11.189Z,20.5
2022-08-17T19:48:14.148Z,20.6
2022-08-17T19:50:17.077Z,20.5
2022-08-17T19:52:20.045Z,20.5
2022-08-17T19:58:28.887Z,20.5
2022-08-17T20:02:37.894Z,20.5
2022-08-17T20:04:40.822Z,20.5
2022-08-17T20:07:46.836Z,20.5
2022-08-17T20:09:49.746Z,20.5
2022-08-17T20:20:07.610Z,20.4
2022-08-17T20:22:10.556Z,20.5
2022-08-17T20:32:28.419Z,20.3
2022-08-17T20:38:37.270Z,20.1
2022-08-17T20:40:40.208Z,20.2
2022-08-17T20:44:49.240Z,20.3
2022-08-17T20:46:52.190Z,20.3
2022-08-17T20:53:01.055Z,20.2
2022-08-17T20:55:04.009Z,20.2
2022-08-17T20:57:14.028Z,20.3
2022-08-17T20:59:13.008Z,20.4
2022-08-17T21:05:48.271Z,20
2022-08-17T21:09:57.316Z,20.1
2022-08-17T21:18:09.124Z,20
2022-08-17T21:20:12.697Z,20.1
2022-08-17T21:24:21.113Z,19.9
2022-08-17T21:26:29.633Z,20
2022-08-17T21:28:33.875Z,19.9
2022-08-17T21:30:29.985Z,19.9
2022-08-17T21:32:32.951Z,19.8
2022-08-17T21:36:38.859Z,19.9
2022-08-17T21:40:47.931Z,19.9
2022-08-17T21:42:50.891Z,19.8
2022-08-17T21:44:53.844Z,19.8
2022-08-17T21:46:56.812Z,19.7
2022-08-17T21:48:59.777Z,19.7
2022-08-17T21:51:02.749Z,19.6
2022-08-17T21:53:08.842Z,19.6
2022-08-17T21:55:11.806Z,19.6
2022-08-17T21:58:17.874Z,19.5
2022-08-17T22:00:20.810Z,19.6
2022-08-17T22:02:23.809Z,19.8
2022-08-17T22:04:26.752Z,19.7
2022-08-17T22:06:32.835Z,19.6
2022-08-17T22:08:35.799Z,19.4
2022-08-17T22:10:38.793Z,19.4
2022-08-17T22:12:41.786Z,19.7
2022-08-17T22:14:53.345Z,19.7
2022-08-17T22:16:47.711Z,19.7
2022-08-17T22:18:50.660Z,19.5
2022-08-17T22:22:59.761Z,19.5
2022-08-17T22:25:02.737Z,19.7
2022-08-17T22:27:05.687Z,19.5
2022-08-17T22:29:08.673Z,19.6
2022-08-17T22:31:13.259Z,19.5
2022-08-17T22:33:14.617Z,19.6
2022-08-17T22:35:20.702Z,19.6
2022-08-17T22:37:27.511Z,19.6
2022-08-17T22:39:26.698Z,19.5
2022-08-17T22:41:29.620Z,19.5
2022-08-17T22:43:34.435Z,19.4
2022-08-17T22:47:38.551Z,19.5
2022-08-17T22:49:53.873Z,19.4
2022-08-17T22:51:47.626Z,19.4
2022-08-17T22:53:50.607Z,19.3
2022-08-17T22:54:53.671Z,19.4
2022-08-17T22:56:56.603Z,19.3
2022-08-17T22:58:59.570Z,19.5
2022-08-17T23:01:02.558Z,19.5
2022-08-17T23:05:11.598Z,19.3
2022-08-17T23:07:14.588Z,19.4
2022-08-17T23:09:17.562Z,19.4
2022-08-17T23:11:20.512Z,19.3
2022-08-17T23:13:23.473Z,19.4
2022-08-17T23:15:26.464Z,19.4
2022-08-17T23:17:36.934Z,19.2
2022-08-17T23:19:35.536Z,19.3
2022-08-17T23:21:38.497Z,19.2
2022-08-17T23:23:41.491Z,19.3
2022-08-17T23:25:44.449Z,19.2
2022-08-17T23:27:47.552Z,19.2
2022-08-17T23:29:50.389Z,19.2
2022-08-17T23:31:56.498Z,19.1
2022-08-17T23:33:59.494Z,19
2022-08-17T23:38:05.434Z,19
2022-08-17T23:40:08.509Z,19.1
2022-08-17T23:42:11.421Z,19
2022-08-17T23:44:14.381Z,18.9
2022-08-17T23:46:20.511Z,19
2022-08-17T23:48:28.504Z,18.9
2022-08-17T23:50:29.910Z,19
2022-08-17T23:51:29.509Z,19
2022-08-17T23:55:35.484Z,18.9
2022-08-17T23:57:38.510Z,19
